createdAt,value
2019-02-09T00:01:57.757Z,65.47
2019-02-09T00:04:27.321Z,62.93
2019-02-09T00:06:56.810Z,68.17
2019-02-09T00:09:25.772Z,67.60
2019-02-09T00:11:55.045Z,63.23
2019-02-09T00:14:24.683Z,68.20
2019-02-09T00:16:53.942Z,65.55
2019-02-09T00:19:22.750Z,66.37
2019-02-09T00:21:52.052Z,65.42
2019-02-09T00:24:20.862Z,68.97
2019-02-09T00:26:50.170Z,61.35
2019-02-09T00:29:19.524Z,68.28
2019-02-09T00:31:48.558Z,66.00
2019-02-09T00:34:18.019Z,67.22
2019-02-09T00:36:47.305Z,70.17
2019-02-09T00:39:16.219Z,66.55
2019-02-09T00:41:45.585Z,70.83
2019-02-09T00:44:14.879Z,65.42
2019-02-09T00:46:44.563Z,64.37
2019-02-09T00:49:13.756Z,64.95
2019-02-09T00:51:42.960Z,63.95
2019-02-09T00:54:12.431Z,64.05
2019-02-09T00:56:42.086Z,74.25
2019-02-09T00:59:11.094Z,68.50
2019-02-09T01:01:40.454Z,72.97
2019-02-09T01:04:09.698Z,69.60
2019-02-09T01:06:38.879Z,72.47
2019-02-09T01:09:11.391Z,67.30
2019-02-09T01:11:40.726Z,71.00
2019-02-09T01:14:09.690Z,69.92
2019-02-09T01:16:39.375Z,68.35
2019-02-09T01:19:08.642Z,64.10
2019-02-09T01:21:38.070Z,80.12
2019-02-09T01:24:07.552Z,71.28
2019-02-09T01:26:37.450Z,76.47
2019-02-09T01:29:06.862Z,72.50
2019-02-09T01:31:36.407Z,68.57
2019-02-09T01:34:05.677Z,74.40
2019-02-09T01:36:34.431Z,70.15
2019-02-09T01:39:05.092Z,74.53
2019-02-09T01:41:34.290Z,72.45
2019-02-09T01:44:03.434Z,72.40
2019-02-09T01:46:32.871Z,68.92
2019-02-09T01:49:01.787Z,66.85
2019-02-09T01:51:31.014Z,72.95
2019-02-09T01:54:00.458Z,66.95
2019-02-09T01:56:29.833Z,67.32
2019-02-09T01:58:59.017Z,69.07
2019-02-09T02:01:28.428Z,66.40
2019-02-09T02:03:57.752Z,68.12
2019-02-09T02:06:27.054Z,73.62
2019-02-09T02:08:55.968Z,66.12
2019-02-09T02:11:24.701Z,70.32
2019-02-09T02:13:54.018Z,69.42
2019-02-09T02:16:23.301Z,65.17
2019-02-09T02:18:52.768Z,71.07
2019-02-09T02:21:21.612Z,73.15
2019-02-09T02:23:50.556Z,73.05
2019-02-09T02:26:19.426Z,73.83
2019-02-09T02:28:48.810Z,70.08
2019-02-09T02:31:17.846Z,65.92
2019-02-09T02:33:47.469Z,65.85
2019-02-09T02:36:16.781Z,68.47
2019-02-09T02:38:45.920Z,79.03
2019-02-09T02:41:15.144Z,66.80
2019-02-09T02:43:44.057Z,72.08
2019-02-09T02:46:13.395Z,71.42
2019-02-09T02:48:42.534Z,77.53
2019-02-09T02:51:11.805Z,76.15
2019-02-09T02:53:41.082Z,74.00
2019-02-09T02:56:10.288Z,76.10
2019-02-09T02:58:39.693Z,81.82
2019-02-09T03:01:09.000Z,79.95
2019-02-09T03:03:38.390Z,76.07
2019-02-09T03:06:07.736Z,80.45
2019-02-09T03:08:36.633Z,78.97
2019-02-09T03:11:05.801Z,79.92
2019-02-09T03:13:35.281Z,81.95
2019-02-09T03:16:04.297Z,81.75
2019-02-09T03:18:33.503Z,82.72
2019-02-09T03:21:02.380Z,91.67
2019-02-09T03:23:31.874Z,79.22
2019-02-09T03:26:01.495Z,88.62
2019-02-09T03:28:31.205Z,88.58
2019-02-09T03:31:00.508Z,90.87
2019-02-09T03:33:29.699Z,87.25
2019-02-09T03:35:59.186Z,85.03
2019-02-09T03:38:28.330Z,85.77
2019-02-09T03:40:57.685Z,89.77
2019-02-09T03:43:27.074Z,84.77
2019-02-09T03:45:56.423Z,86.55
2019-02-09T03:48:25.292Z,88.42
2019-02-09T03:50:54.214Z,85.65
2019-02-09T03:53:24.031Z,91.65
2019-02-09T03:55:53.637Z,87.27
2019-02-09T03:58:22.852Z,100.12
2019-02-09T04:00:55.434Z,87.67
2019-02-09T04:03:23.325Z,96.90
2019-02-09T04:05:52.798Z,92.57
2019-02-09T04:08:22.202Z,85.22
2019-02-09T04:10:51.639Z,88.55
2019-02-09T04:13:21.024Z,96.10
2019-02-09T04:15:50.478Z,91.55
2019-02-09T04:18:19.238Z,95.15
2019-02-09T04:20:48.734Z,96.82
2019-02-09T04:23:17.727Z,106.97
2019-02-09T04:25:46.769Z,103.40
2019-02-09T04:28:16.200Z,97.00
2019-02-09T04:30:45.952Z,103.70
2019-02-09T04:33:15.237Z,105.00
2019-02-09T04:35:44.487Z,108.10
2019-02-09T04:38:13.624Z,101.45
2019-02-09T04:40:42.582Z,115.60
2019-02-09T04:43:11.985Z,106.22
2019-02-09T04:45:41.321Z,96.78
2019-02-09T04:48:10.071Z,104.58
2019-02-09T04:50:39.050Z,108.72
2019-02-09T04:53:08.872Z,104.43
2019-02-09T04:55:38.258Z,111.40
2019-02-09T04:58:07.258Z,116.25
2019-02-09T05:00:36.269Z,103.12
2019-02-09T05:03:05.783Z,120.08
2019-02-09T05:05:35.176Z,109.80
2019-02-09T05:08:04.306Z,108.45
2019-02-09T05:10:33.518Z,102.95
2019-02-09T05:13:03.159Z,116.08
2019-02-09T05:15:32.068Z,114.35
2019-02-09T05:18:00.963Z,129.25
2019-02-09T05:20:30.521Z,107.90
2019-02-09T05:22:59.971Z,113.00
2019-02-09T05:25:29.561Z,112.70
2019-02-09T05:27:59.555Z,115.37
2019-02-09T05:30:32.192Z,114.95
2019-02-09T05:33:01.176Z,113.00
2019-02-09T05:35:30.036Z,118.53
2019-02-09T05:37:58.701Z,110.12
2019-02-09T05:40:28.973Z,119.25
2019-02-09T05:42:57.651Z,119.55
2019-02-09T05:45:28.959Z,123.90
2019-02-09T05:47:57.715Z,114.95
2019-02-09T05:50:26.508Z,110.08
2019-02-09T05:52:55.181Z,119.13
2019-02-09T05:55:23.931Z,110.92
2019-02-09T05:57:52.660Z,109.07
2019-02-09T06:00:34.886Z,101.33
2019-02-09T06:03:03.632Z,110.75
2019-02-09T06:05:32.382Z,108.12
2019-02-09T06:08:01.281Z,97.92
2019-02-09T06:10:30.062Z,105.40
2019-02-09T06:12:58.777Z,104.55
2019-02-09T06:15:28.835Z,102.32
2019-02-09T06:17:57.416Z,97.20
2019-02-09T06:20:30.010Z,97.27
2019-02-09T06:22:58.779Z,100.53
2019-02-09T06:25:27.663Z,91.28
2019-02-09T06:27:56.416Z,94.13
2019-02-09T06:30:30.078Z,95.70
2019-02-09T06:32:58.793Z,97.67
2019-02-09T06:35:27.506Z,97.92
2019-02-09T06:37:56.273Z,95.17
2019-02-09T06:40:25.067Z,93.00
2019-02-09T06:42:53.912Z,93.52
2019-02-09T06:45:24.923Z,87.02
2019-02-09T06:47:53.610Z,98.12
2019-02-09T06:50:25.498Z,96.90
2019-02-09T06:52:54.316Z,92.45
2019-02-09T06:55:23.115Z,89.32
2019-02-09T06:57:51.860Z,93.05
2019-02-09T07:00:22.062Z,85.22
2019-02-09T07:02:52.067Z,87.65
2019-02-09T07:05:21.195Z,86.78
2019-02-09T07:07:49.949Z,99.65
2019-02-09T07:10:21.039Z,89.65
2019-02-09T07:12:49.752Z,99.58
2019-02-09T07:15:27.726Z,99.77
2019-02-09T07:17:56.388Z,99.28
2019-02-09T07:20:27.031Z,87.53
2019-02-09T07:22:55.828Z,90.90
2019-02-09T07:25:24.609Z,87.45
2019-02-09T07:27:53.312Z,96.45
2019-02-09T07:30:32.664Z,98.25
2019-02-09T07:33:01.461Z,82.20
2019-02-09T07:35:30.281Z,89.80
2019-02-09T07:37:58.977Z,91.97
2019-02-09T07:40:27.620Z,90.53
2019-02-09T07:42:56.364Z,92.00
2019-02-09T07:45:29.878Z,94.07
2019-02-09T07:47:58.538Z,91.65
2019-02-09T07:50:28.124Z,89.62
2019-02-09T07:52:56.999Z,84.85
2019-02-09T07:55:25.714Z,84.22
2019-02-09T07:57:54.381Z,85.03
2019-02-09T08:00:26.417Z,92.95
2019-02-09T08:02:54.948Z,86.90
2019-02-09T08:05:24.324Z,82.10
2019-02-09T08:07:53.247Z,77.95
2019-02-09T08:10:25.127Z,80.47
2019-02-09T08:12:53.815Z,81.00
2019-02-09T08:15:24.586Z,81.05
2019-02-09T08:17:53.415Z,75.90
2019-02-09T08:20:24.307Z,78.25
2019-02-09T08:22:53.666Z,71.37
2019-02-09T08:25:24.272Z,74.97
2019-02-09T08:27:53.685Z,75.00
2019-02-09T08:30:26.793Z,93.20
2019-02-09T08:32:55.702Z,114.72
2019-02-09T08:35:24.443Z,105.32
2019-02-09T08:37:53.209Z,71.22
2019-02-09T08:40:21.966Z,68.37
2019-02-09T08:42:50.693Z,70.20
2019-02-09T08:45:20.858Z,70.87
2019-02-09T08:47:49.561Z,71.40
2019-02-09T08:50:24.342Z,73.85
2019-02-09T08:52:53.184Z,65.00
2019-02-09T08:55:22.003Z,64.92
2019-02-09T08:57:50.947Z,68.70
2019-02-09T09:00:22.498Z,69.55
2019-02-09T09:02:51.271Z,61.90
2019-02-09T09:05:19.983Z,63.73
2019-02-09T09:07:48.753Z,68.57
2019-02-09T09:10:28.462Z,69.95
2019-02-09T09:12:58.351Z,60.12
2019-02-09T09:15:42.772Z,64.95
2019-02-09T09:18:11.595Z,69.00
2019-02-09T09:20:51.604Z,63.38
2019-02-09T09:23:20.293Z,61.98
2019-02-09T09:25:48.986Z,65.12
2019-02-09T09:28:18.076Z,60.43
2019-02-09T09:30:46.942Z,63.98
2019-02-09T09:33:15.709Z,64.62
2019-02-09T09:35:44.475Z,68.10
2019-02-09T09:38:13.235Z,61.90
2019-02-09T09:40:43.383Z,59.80
2019-02-09T09:43:12.132Z,60.28
2019-02-09T09:45:42.448Z,63.23
2019-02-09T09:48:19.271Z,61.05
2019-02-09T09:50:48.029Z,65.45
2019-02-09T09:53:16.790Z,61.42
2019-02-09T09:55:45.510Z,55.75
2019-02-09T09:58:14.301Z,63.40
2019-02-09T10:00:43.045Z,67.20
2019-02-09T10:03:11.961Z,60.43
2019-02-09T10:05:40.693Z,60.35
2019-02-09T10:08:09.393Z,61.37
2019-02-09T10:10:38.350Z,58.02
2019-02-09T10:13:07.382Z,59.77
2019-02-09T10:15:36.067Z,58.15
2019-02-09T10:18:06.784Z,56.58
2019-02-09T10:20:35.438Z,55.78
2019-02-09T10:23:04.259Z,59.13
2019-02-09T10:25:33.065Z,56.20
2019-02-09T10:28:21.061Z,51.75
2019-02-09T10:30:49.970Z,53.38
2019-02-09T10:33:18.686Z,54.67
2019-02-09T10:35:47.360Z,62.93
2019-02-09T10:38:16.091Z,63.65
2019-02-09T10:40:44.761Z,54.80
2019-02-09T10:43:13.453Z,57.98
2019-02-09T10:45:42.166Z,53.73
2019-02-09T10:48:10.887Z,58.45
2019-02-09T10:50:47.486Z,52.60
2019-02-09T10:53:16.360Z,55.58
2019-02-09T10:55:45.235Z,49.63
2019-02-09T10:58:15.672Z,54.18
2019-02-09T11:00:49.756Z,53.48
2019-02-09T11:05:46.481Z,53.80
2019-02-09T11:08:15.203Z,52.58
2019-02-09T11:10:44.199Z,55.23
2019-02-09T11:13:13.372Z,48.87
2019-02-09T11:15:43.706Z,51.50
2019-02-09T11:18:12.442Z,51.30
2019-02-09T11:20:41.361Z,48.55
2019-02-09T11:23:10.146Z,51.45
2019-02-09T11:25:39.600Z,47.62
2019-02-09T11:28:08.540Z,42.90
2019-02-09T11:30:37.297Z,47.08
2019-02-09T11:33:06.264Z,49.77
2019-02-09T11:35:34.956Z,48.35
2019-02-09T11:38:03.852Z,48.02
2019-02-09T11:40:34.242Z,47.78
2019-02-09T11:43:03.864Z,52.62
2019-02-09T11:45:33.969Z,51.77
2019-02-09T11:48:04.439Z,48.85
2019-02-09T11:50:33.221Z,48.65
2019-02-09T11:53:02.191Z,52.50
2019-02-09T11:55:31.489Z,50.65
2019-02-09T11:58:00.241Z,43.95
2019-02-09T12:00:37.300Z,44.75
2019-02-09T12:03:14.582Z,51.65
2019-02-09T12:05:36.554Z,51.85
2019-02-09T12:08:06.473Z,52.70
2019-02-09T12:10:35.228Z,53.33
2019-02-09T12:13:05.324Z,48.17
2019-02-09T12:15:36.855Z,46.80
2019-02-09T12:18:07.800Z,47.15
2019-02-09T12:20:36.647Z,51.45
2019-02-09T12:23:05.321Z,48.05
2019-02-09T12:25:38.561Z,49.48
2019-02-09T12:28:11.757Z,48.93
2019-02-09T12:30:41.190Z,42.87
2019-02-09T12:33:11.605Z,46.08
2019-02-09T12:35:40.521Z,52.00
2019-02-09T12:38:10.767Z,48.40
2019-02-09T12:40:39.440Z,45.08
2019-02-09T12:43:08.183Z,47.58
2019-02-09T12:45:41.002Z,51.30
2019-02-09T12:48:11.063Z,57.58
2019-02-09T12:50:39.917Z,53.73
2019-02-09T12:53:08.663Z,53.75
2019-02-09T12:55:37.965Z,53.38
2019-02-09T12:58:06.981Z,54.03
2019-02-09T13:00:39.875Z,56.28
2019-02-09T13:03:17.535Z,51.18
2019-02-09T13:05:46.308Z,58.42
2019-02-09T13:08:14.976Z,59.58
2019-02-09T13:10:43.753Z,54.58
2019-02-09T13:13:12.434Z,50.88
2019-02-09T13:15:41.121Z,52.53
2019-02-09T13:18:10.152Z,54.48
2019-02-09T13:20:38.879Z,52.08
2019-02-09T13:23:08.765Z,48.65
2019-02-09T13:25:37.483Z,57.75
2019-02-09T13:28:07.348Z,52.80
2019-02-09T13:30:41.228Z,54.75
2019-02-09T13:33:10.028Z,54.75
2019-02-09T13:35:38.928Z,58.20
2019-02-09T13:38:07.653Z,56.08
2019-02-09T13:40:36.480Z,49.03
2019-02-09T13:43:06.801Z,53.08
2019-02-09T13:45:37.950Z,50.65
2019-02-09T13:48:06.866Z,52.58
2019-02-09T13:50:35.953Z,51.18
2019-02-09T13:53:05.585Z,54.05
2019-02-09T13:55:34.246Z,53.68
2019-02-09T13:58:02.982Z,59.33
2019-02-09T14:00:32.549Z,58.98
2019-02-09T14:03:01.607Z,55.23
2019-02-09T14:05:30.336Z,53.75
2019-02-09T14:07:59.617Z,53.75
2019-02-09T14:10:29.065Z,51.90
2019-02-09T14:12:57.904Z,57.67
2019-02-09T14:15:29.786Z,54.98
2019-02-09T14:17:59.690Z,57.38
2019-02-09T14:20:28.440Z,63.87
2019-02-09T14:22:57.186Z,56.63
2019-02-09T14:25:25.953Z,53.15
2019-02-09T14:27:56.298Z,54.98
2019-02-09T14:30:30.132Z,51.77
2019-02-09T14:32:58.836Z,51.50
2019-02-09T14:35:28.048Z,57.95
2019-02-09T14:37:56.781Z,56.15
2019-02-09T14:40:27.724Z,63.80
2019-02-09T14:42:56.504Z,60.33
2019-02-09T14:45:27.641Z,57.98
2019-02-09T14:47:56.332Z,56.65
2019-02-09T14:50:25.004Z,50.98
2019-02-09T14:52:53.735Z,57.80
2019-02-09T14:55:30.976Z,55.30
2019-02-09T14:57:59.749Z,56.85
2019-02-09T15:00:34.324Z,55.35
2019-02-09T15:03:02.955Z,54.70
2019-02-09T15:05:32.301Z,53.80
2019-02-09T15:08:01.000Z,54.75
2019-02-09T15:10:29.707Z,64.62
2019-02-09T15:12:58.536Z,56.08
2019-02-09T15:15:30.405Z,67.32
2019-02-09T15:17:59.105Z,60.00
2019-02-09T15:20:30.941Z,57.90
2019-02-09T15:22:59.630Z,59.00
2019-02-09T15:25:28.441Z,61.18
2019-02-09T15:27:57.175Z,54.48
2019-02-09T15:30:27.998Z,58.60
2019-02-09T15:32:56.767Z,62.60
2019-02-09T15:35:25.445Z,57.38
2019-02-09T15:37:54.191Z,59.15
2019-02-09T15:40:23.160Z,60.80
2019-02-09T15:42:51.892Z,61.28
2019-02-09T15:45:24.221Z,56.08
2019-02-09T15:47:53.026Z,59.08
2019-02-09T15:50:22.278Z,53.15
2019-02-09T15:52:50.963Z,53.40
2019-02-09T15:55:21.595Z,50.23
2019-02-09T15:57:50.240Z,48.15
2019-02-09T16:00:23.569Z,51.23
2019-02-09T16:02:53.668Z,52.15
2019-02-09T16:05:22.546Z,56.58
2019-02-09T16:07:51.246Z,57.48
2019-02-09T16:10:22.002Z,61.85
2019-02-09T16:12:50.859Z,63.80
2019-02-09T16:15:28.705Z,53.92
2019-02-09T16:17:57.308Z,55.73
2019-02-09T16:20:27.472Z,47.65
2019-02-09T16:22:57.225Z,52.17
2019-02-09T16:25:25.939Z,48.42
2019-02-09T16:27:54.629Z,54.23
2019-02-09T16:30:30.821Z,55.23
2019-02-09T16:32:59.541Z,50.30
2019-02-09T16:35:29.175Z,51.88
2019-02-09T16:37:57.917Z,45.75
2019-02-09T16:40:31.375Z,50.10
2019-02-09T16:43:00.124Z,47.98
2019-02-09T16:45:30.798Z,49.25
2019-02-09T16:47:59.494Z,50.03
2019-02-09T16:50:28.217Z,49.88
2019-02-09T16:52:57.009Z,48.10
2019-02-09T16:55:25.705Z,48.52
2019-02-09T16:57:54.338Z,53.25
2019-02-09T17:00:34.261Z,46.92
2019-02-09T17:03:03.070Z,43.40
2019-02-09T17:05:31.926Z,47.00
2019-02-09T17:08:00.898Z,47.43
2019-02-09T17:10:29.658Z,48.73
2019-02-09T17:12:58.384Z,48.52
2019-02-09T17:15:28.522Z,47.73
2019-02-09T17:17:59.183Z,47.15
2019-02-09T17:20:28.881Z,49.70
2019-02-09T17:22:57.739Z,53.20
2019-02-09T17:25:26.696Z,50.23
2019-02-09T17:27:55.528Z,48.20
2019-02-09T17:30:25.816Z,47.43
2019-02-09T17:32:54.601Z,49.25
2019-02-09T17:35:23.501Z,48.78
2019-02-09T17:37:52.291Z,46.20
2019-02-09T17:40:26.847Z,45.55
2019-02-09T17:42:55.684Z,47.13
2019-02-09T17:45:30.378Z,46.33
2019-02-09T17:47:59.202Z,52.35
2019-02-09T17:50:27.999Z,48.08
2019-02-09T17:52:56.729Z,53.78
2019-02-09T17:55:25.477Z,56.28
2019-02-09T17:57:54.183Z,53.33
2019-02-09T18:00:26.589Z,50.95
2019-02-09T18:02:55.340Z,51.25
2019-02-09T18:05:24.313Z,48.87
2019-02-09T18:07:53.108Z,50.43
2019-02-09T18:10:21.983Z,49.70
2019-02-09T18:12:50.747Z,50.83
2019-02-09T18:15:20.584Z,44.55
2019-02-09T18:17:49.255Z,44.53
2019-02-09T18:20:18.835Z,46.02
2019-02-09T18:22:47.728Z,47.33
2019-02-09T18:25:19.660Z,48.63
2019-02-09T18:27:48.299Z,50.65
2019-02-09T18:30:24.860Z,48.05
2019-02-09T18:32:53.678Z,51.15
2019-02-09T18:35:22.621Z,51.70
2019-02-09T18:37:51.426Z,54.55
2019-02-09T18:40:29.591Z,51.92
2019-02-09T18:42:58.638Z,50.70
2019-02-09T18:45:34.018Z,51.63
2019-02-09T18:48:02.831Z,53.08
2019-02-09T18:50:32.768Z,56.75
2019-02-09T18:53:02.109Z,54.60
2019-02-09T18:55:31.265Z,55.43
2019-02-09T18:57:59.959Z,56.08
2019-02-09T19:00:37.004Z,54.08
2019-02-09T19:03:06.821Z,62.48
2019-02-09T19:05:35.550Z,62.95
2019-02-09T19:08:05.525Z,60.98
2019-02-09T19:10:34.195Z,59.90
2019-02-09T19:13:02.985Z,60.63
2019-02-09T19:15:31.864Z,59.67
2019-02-09T19:18:00.664Z,63.25
2019-02-09T19:20:36.391Z,61.95
2019-02-09T19:23:05.865Z,60.00
2019-02-09T19:25:36.261Z,63.33
2019-02-09T19:28:06.287Z,63.28
2019-02-09T19:30:36.344Z,62.53
2019-02-09T19:33:06.001Z,60.45
2019-02-09T19:35:34.751Z,62.90
2019-02-09T19:38:03.699Z,59.75
2019-02-09T19:40:32.637Z,63.00
2019-02-09T19:43:01.374Z,62.30
2019-02-09T19:45:38.790Z,63.65
2019-02-09T19:48:09.361Z,65.75
2019-02-09T19:50:38.187Z,62.65
2019-02-09T19:53:07.098Z,65.15
2019-02-09T19:55:36.376Z,64.12
2019-02-09T19:58:06.617Z,64.70
2019-02-09T20:00:49.084Z,58.63
2019-02-09T20:03:17.816Z,62.27
2019-02-09T20:05:46.424Z,57.78
2019-02-09T20:08:16.026Z,57.58
2019-02-09T20:10:44.735Z,57.70
2019-02-09T20:13:14.394Z,58.15
2019-02-09T20:15:43.119Z,60.70
2019-02-09T20:18:12.485Z,65.40
2019-02-09T20:20:46.949Z,64.35
2019-02-09T20:23:11.716Z,64.40
2019-02-09T20:25:40.552Z,62.98
2019-02-09T20:28:09.237Z,58.87
2019-02-09T20:30:42.698Z,60.83
2019-02-09T20:33:11.530Z,61.68
2019-02-09T20:35:40.221Z,63.73
2019-02-09T20:38:09.344Z,61.28
2019-02-09T20:40:40.351Z,56.33
2019-02-09T20:43:11.743Z,61.40
2019-02-09T20:45:42.152Z,63.45
2019-02-09T20:48:10.940Z,62.55
2019-02-09T20:50:39.666Z,59.25
2019-02-09T20:53:08.390Z,58.75
2019-02-09T20:55:37.208Z,60.55
2019-02-09T20:58:07.728Z,56.63
2019-02-09T21:00:36.501Z,59.63
2019-02-09T21:03:05.912Z,61.50
2019-02-09T21:05:36.428Z,60.50
2019-02-09T21:08:05.477Z,58.70
2019-02-09T21:10:39.411Z,62.13
2019-02-09T21:13:08.272Z,61.20
2019-02-09T21:15:38.185Z,60.80
2019-02-09T21:18:07.681Z,57.05
2019-02-09T21:20:36.793Z,60.08
2019-02-09T21:23:07.128Z,60.33
2019-02-09T21:25:38.354Z,59.40
2019-02-09T21:28:08.368Z,59.67
2019-02-09T21:30:37.547Z,61.25
2019-02-09T21:33:07.461Z,58.87
2019-02-09T21:35:43.689Z,56.05
2019-02-09T21:38:07.588Z,54.95
2019-02-09T21:40:36.701Z,52.80
2019-02-09T21:43:06.077Z,55.03
2019-02-09T21:45:35.256Z,54.55
2019-02-09T21:48:04.651Z,53.10
2019-02-09T21:50:37.289Z,53.48
2019-02-09T21:53:08.406Z,50.43
2019-02-09T21:55:37.290Z,53.17
2019-02-09T21:58:07.637Z,45.83
2019-02-09T22:00:47.172Z,51.95
2019-02-09T22:03:16.893Z,56.30
2019-02-09T22:05:51.698Z,52.25
2019-02-09T22:08:19.974Z,53.92
2019-02-09T22:10:50.076Z,48.13
2019-02-09T22:13:20.043Z,51.00
2019-02-09T22:15:52.944Z,52.65
2019-02-09T22:18:21.950Z,47.95
2019-02-09T22:20:52.749Z,52.62
2019-02-09T22:23:22.868Z,49.27
2019-02-09T22:25:51.760Z,51.23
2019-02-09T22:28:21.043Z,50.80
2019-02-09T22:30:50.621Z,51.55
2019-02-09T22:33:24.649Z,50.00
2019-02-09T22:35:50.399Z,48.25
2019-02-09T22:38:19.643Z,49.20
2019-02-09T22:40:49.109Z,49.08
2019-02-09T22:43:18.155Z,51.70
2019-02-09T22:45:47.312Z,51.28
2019-02-09T22:48:17.108Z,47.13
2019-02-09T22:50:47.954Z,50.92
2019-02-09T22:53:17.424Z,47.80
2019-02-09T22:55:46.332Z,50.80
2019-02-09T22:58:15.764Z,46.63
2019-02-09T23:00:55.982Z,50.95
2019-02-09T23:03:40.167Z,46.15
2019-02-09T23:06:15.136Z,41.20
2019-02-09T23:08:52.526Z,46.53
2019-02-09T23:11:21.398Z,45.98
2019-02-09T23:13:50.206Z,48.08
2019-02-09T23:16:19.665Z,45.55
2019-02-09T23:18:48.976Z,44.98
2019-02-09T23:21:18.446Z,45.88
2019-02-09T23:23:47.296Z,46.10
2019-02-09T23:26:16.214Z,51.45
2019-02-09T23:28:45.002Z,44.83
2019-02-09T23:31:14.393Z,46.53
2019-02-09T23:33:43.565Z,49.05
2019-02-09T23:36:16.287Z,42.65
2019-02-09T23:38:43.614Z,40.15
2019-02-09T23:41:12.550Z,43.52
2019-02-09T23:43:41.507Z,48.13
2019-02-09T23:46:10.705Z,46.33
2019-02-09T23:48:40.341Z,51.37
2019-02-09T23:51:09.701Z,41.68
2019-02-09T23:53:39.037Z,46.18
2019-02-09T23:56:08.401Z,41.30
2019-02-09T23:58:37.296Z,51.20
